sensor_id;sensor_type;location;lat;lon;timestamp;temperature;humidity
19928;DHT22;10126;50.876;4.470;2023-05-10T00:00:22;14.10;99.90
19928;DHT22;10126;50.876;4.470;2023-05-10T00:02:24;14.10;99.90
19928;DHT22;10126;50.876;4.470;2023-05-10T00:04:25;14.00;99.90
19928;DHT22;10126;50.876;4.470;2023-05-10T00:06:27;14.10;99.90
19928;DHT22;10126;50.876;4.470;2023-05-10T00:08:28;14.20;99.90
19928;DHT22;10126;50.876;4.470;2023-05-10T00:10:29;14.10;99.90
19928;DHT22;10126;50.876;4.470;2023-05-10T00:12:29;14.10;99.90
19928;DHT22;10126;50.876;4.470;2023-05-10T00:14:30;14.10;99.90
19928;DHT22;10126;50.876;4.470;2023-05-10T00:16:31;14.10;99.90
19928;DHT22;10126;50.876;4.470;2023-05-10T00:18:31;14.10;99.90
19928;DHT22;10126;50.876;4.470;2023-05-10T00:20:32;14.10;99.90
19928;DHT22;10126;50.876;4.470;2023-05-10T00:22:32;14.00;99.90
19928;DHT22;10126;50.876;4.470;2023-05-10T00:24:33;14.10;99.90
19928;DHT22;10126;50.876;4.470;2023-05-10T00:26:34;14.10;99.90
19928;DHT22;10126;50.876;4.470;2023-05-10T00:28:35;14.10;99.90
19928;DHT22;10126;50.876;4.470;2023-05-10T00:30:35;14.10;99.90
19928;DHT22;10126;50.876;4.470;2023-05-10T00:32:36;14.30;99.90
19928;DHT22;10126;50.876;4.470;2023-05-10T00:34:36;14.30;99.90
19928;DHT22;10126;50.876;4.470;2023-05-10T00:36:37;14.20;99.90
19928;DHT22;10126;50.876;4.470;2023-05-10T00:38:38;14.20;99.90
19928;DHT22;10126;50.876;4.470;2023-05-10T00:40:39;14.10;99.90
19928;DHT22;10126;50.876;4.470;2023-05-10T00:42:39;14.40;99.90
19928;DHT22;10126;50.876;4.470;2023-05-10T00:44:40;14.40;99.90
19928;DHT22;10126;50.876;4.470;2023-05-10T00:46:41;14.40;99.90
19928;DHT22;10126;50.876;4.470;2023-05-10T00:48:43;14.30;99.90
19928;DHT22;10126;50.876;4.470;2023-05-10T00:50:44;14.40;99.90
19928;DHT22;10126;50.876;4.470;2023-05-10T00:52:45;14.50;99.90
19928;DHT22;10126;50.876;4.470;2023-05-10T00:54:46;14.50;99.90
19928;DHT22;10126;50.876;4.470;2023-05-10T00:56:48;14.50;99.90
19928;DHT22;10126;50.876;4.470;2023-05-10T00:58:49;14.30;99.90
19928;DHT22;10126;50.876;4.470;2023-05-10T01:00:50;14.30;99.90
19928;DHT22;10126;50.876;4.470;2023-05-10T01:02:53;14.30;99.90
19928;DHT22;10126;50.876;4.470;2023-05-10T01:04:57;14.50;99.90
19928;DHT22;10126;50.876;4.470;2023-05-10T01:06:57;14.60;99.90
19928;DHT22;10126;50.876;4.470;2023-05-10T01:08:58;14.60;99.90
19928;DHT22;10126;50.876;4.470;2023-05-10T01:10:59;14.50;99.90
19928;DHT22;10126;50.876;4.470;2023-05-10T01:12:59;14.40;99.90
19928;DHT22;10126;50.876;4.470;2023-05-10T01:15:01;14.30;99.90
19928;DHT22;10126;50.876;4.470;2023-05-10T01:17:02;14.40;99.90
19928;DHT22;10126;50.876;4.470;2023-05-10T01:19:06;14.40;99.90
19928;DHT22;10126;50.876;4.470;2023-05-10T01:35:43;14.30;99.90
19928;DHT22;10126;50.876;4.470;2023-05-10T01:40:39;14.40;99.90
19928;DHT22;10126;50.876;4.470;2023-05-10T01:42:46;14.20;99.90
19928;DHT22;10126;50.876;4.470;2023-05-10T01:45:06;14.10;99.90
19928;DHT22;10126;50.876;4.470;2023-05-10T01:47:11;14.10;99.90
19928;DHT22;10126;50.876;4.470;2023-05-10T01:49:21;14.10;99.90
19928;DHT22;10126;50.876;4.470;2023-05-10T01:51:26;14.10;99.90
19928;DHT22;10126;50.876;4.470;2023-05-10T01:53:28;14.10;99.90
19928;DHT22;10126;50.876;4.470;2023-05-10T01:55:32;14.20;99.90
19928;DHT22;10126;50.876;4.470;2023-05-10T01:57:39;14.20;99.90
19928;DHT22;10126;50.876;4.470;2023-05-10T01:59:43;14.40;99.90
19928;DHT22;10126;50.876;4.470;2023-05-10T02:01:46;14.20;99.90
19928;DHT22;10126;50.876;4.470;2023-05-10T02:03:49;14.20;99.90
19928;DHT22;10126;50.876;4.470;2023-05-10T02:05:52;14.10;99.90
19928;DHT22;10126;50.876;4.470;2023-05-10T02:07:54;14.10;99.90
19928;DHT22;10126;50.876;4.470;2023-05-10T02:09:55;14.10;99.90
19928;DHT22;10126;50.876;4.470;2023-05-10T02:11:58;14.10;99.90
19928;DHT22;10126;50.876;4.470;2023-05-10T02:14:00;14.10;99.90
19928;DHT22;10126;50.876;4.470;2023-05-10T02:16:01;14.10;99.90
19928;DHT22;10126;50.876;4.470;2023-05-10T02:18:04;14.20;99.90
19928;DHT22;10126;50.876;4.470;2023-05-10T02:20:06;14.30;99.90
19928;DHT22;10126;50.876;4.470;2023-05-10T02:22:08;14.30;99.90
19928;DHT22;10126;50.876;4.470;2023-05-10T02:24:10;14.30;99.90
19928;DHT22;10126;50.876;4.470;2023-05-10T02:26:12;14.30;99.90
19928;DHT22;10126;50.876;4.470;2023-05-10T02:28:14;14.20;99.90
19928;DHT22;10126;50.876;4.470;2023-05-10T02:30:16;14.10;99.90
19928;DHT22;10126;50.876;4.470;2023-05-10T02:32:18;14.10;99.90
19928;DHT22;10126;50.876;4.470;2023-05-10T02:34:21;13.90;99.90
19928;DHT22;10126;50.876;4.470;2023-05-10T02:36:22;13.90;99.90
19928;DHT22;10126;50.876;4.470;2023-05-10T02:38:24;13.90;99.90
19928;DHT22;10126;50.876;4.470;2023-05-10T02:40:27;13.80;99.90
19928;DHT22;10126;50.876;4.470;2023-05-10T02:42:29;13.90;99.90
19928;DHT22;10126;50.876;4.470;2023-05-10T02:44:32;13.90;99.90
19928;DHT22;10126;50.876;4.470;2023-05-10T02:46:34;14.00;99.90
19928;DHT22;10126;50.876;4.470;2023-05-10T02:48:35;14.00;99.90
19928;DHT22;10126;50.876;4.470;2023-05-10T02:50:36;13.80;99.90
19928;DHT22;10126;50.876;4.470;2023-05-10T02:52:47;13.80;99.90
19928;DHT22;10126;50.876;4.470;2023-05-10T02:54:54;14.00;99.90
19928;DHT22;10126;50.876;4.470;2023-05-10T02:56:57;14.00;99.90
19928;DHT22;10126;50.876;4.470;2023-05-10T02:59:00;14.00;99.90
19928;DHT22;10126;50.876;4.470;2023-05-10T03:01:01;14.00;99.90
19928;DHT22;10126;50.876;4.470;2023-05-10T03:03:02;14.10;99.90
19928;DHT22;10126;50.876;4.470;2023-05-10T03:05:03;14.10;99.90
19928;DHT22;10126;50.876;4.470;2023-05-10T03:07:04;14.10;99.90
19928;DHT22;10126;50.876;4.470;2023-05-10T03:09:07;14.00;99.90
19928;DHT22;10126;50.876;4.470;2023-05-10T03:11:39;14.00;99.90
19928;DHT22;10126;50.876;4.470;2023-05-10T03:14:02;13.80;99.90
19928;DHT22;10126;50.876;4.470;2023-05-10T03:16:19;13.80;99.90
19928;DHT22;10126;50.876;4.470;2023-05-10T03:18:33;13.70;99.90
19928;DHT22;10126;50.876;4.470;2023-05-10T03:20:42;13.60;99.90
19928;DHT22;10126;50.876;4.470;2023-05-10T03:25:19;13.60;99.90
19928;DHT22;10126;50.876;4.470;2023-05-10T03:27:23;13.70;99.90
19928;DHT22;10126;50.876;4.470;2023-05-10T03:29:26;13.70;99.90
19928;DHT22;10126;50.876;4.470;2023-05-10T03:31:27;13.70;99.90
19928;DHT22;10126;50.876;4.470;2023-05-10T03:33:48;13.60;99.90
19928;DHT22;10126;50.876;4.470;2023-05-10T03:35:49;13.50;99.90
19928;DHT22;10126;50.876;4.470;2023-05-10T03:37:50;13.40;99.90
19928;DHT22;10126;50.876;4.470;2023-05-10T03:39:50;13.30;99.90
19928;DHT22;10126;50.876;4.470;2023-05-10T03:41:51;13.30;99.90
19928;DHT22;10126;50.876;4.470;2023-05-10T03:43:57;13.20;99.90
19928;DHT22;10126;50.876;4.470;2023-05-10T03:46:05;13.20;99.90
19928;DHT22;10126;50.876;4.470;2023-05-10T03:48:06;13.30;99.90
19928;DHT22;10126;50.876;4.470;2023-05-10T03:50:07;13.30;99.90
19928;DHT22;10126;50.876;4.470;2023-05-10T03:52:08;13.30;99.90
19928;DHT22;10126;50.876;4.470;2023-05-10T03:54:08;13.30;99.90
19928;DHT22;10126;50.876;4.470;2023-05-10T03:56:09;13.30;99.90
19928;DHT22;10126;50.876;4.470;2023-05-10T03:58:12;13.30;99.90
19928;DHT22;10126;50.876;4.470;2023-05-10T04:00:13;13.40;99.90
19928;DHT22;10126;50.876;4.470;2023-05-10T04:02:14;13.30;99.90
19928;DHT22;10126;50.876;4.470;2023-05-10T04:04:15;13.30;99.90
19928;DHT22;10126;50.876;4.470;2023-05-10T04:06:18;13.30;99.90
19928;DHT22;10126;50.876;4.470;2023-05-10T04:08:19;13.40;99.90
19928;DHT22;10126;50.876;4.470;2023-05-10T04:10:29;13.40;99.90
19928;DHT22;10126;50.876;4.470;2023-05-10T04:12:29;13.40;99.90
19928;DHT22;10126;50.876;4.470;2023-05-10T04:14:30;13.20;99.90
19928;DHT22;10126;50.876;4.470;2023-05-10T04:16:34;13.20;99.90
19928;DHT22;10126;50.876;4.470;2023-05-10T04:18:35;13.30;99.90
19928;DHT22;10126;50.876;4.470;2023-05-10T04:20:35;13.30;99.90
19928;DHT22;10126;50.876;4.470;2023-05-10T04:22:36;13.20;99.90
19928;DHT22;10126;50.876;4.470;2023-05-10T04:24:37;13.10;99.90
19928;DHT22;10126;50.876;4.470;2023-05-10T04:26:37;13.10;99.90
19928;DHT22;10126;50.876;4.470;2023-05-10T04:28:41;13.10;99.90
19928;DHT22;10126;50.876;4.470;2023-05-10T04:30:41;13.10;99.90
19928;DHT22;10126;50.876;4.470;2023-05-10T04:32:42;13.20;99.90
19928;DHT22;10126;50.876;4.470;2023-05-10T04:34:43;13.20;99.90
19928;DHT22;10126;50.876;4.470;2023-05-10T04:36:44;13.20;99.90
19928;DHT22;10126;50.876;4.470;2023-05-10T04:38:44;13.20;99.90
19928;DHT22;10126;50.876;4.470;2023-05-10T04:40:45;13.20;99.90
19928;DHT22;10126;50.876;4.470;2023-05-10T04:42:46;13.20;99.90
19928;DHT22;10126;50.876;4.470;2023-05-10T04:44:46;13.20;99.90
19928;DHT22;10126;50.876;4.470;2023-05-10T04:46:47;13.20;99.90
19928;DHT22;10126;50.876;4.470;2023-05-10T04:48:48;13.20;99.90
19928;DHT22;10126;50.876;4.470;2023-05-10T04:50:49;13.20;99.90
19928;DHT22;10126;50.876;4.470;2023-05-10T04:52:49;13.30;99.90
19928;DHT22;10126;50.876;4.470;2023-05-10T04:54:50;13.30;99.90
19928;DHT22;10126;50.876;4.470;2023-05-10T04:56:51;13.30;99.90
19928;DHT22;10126;50.876;4.470;2023-05-10T04:58:51;13.30;99.90
19928;DHT22;10126;50.876;4.470;2023-05-10T05:00:52;13.30;99.90
19928;DHT22;10126;50.876;4.470;2023-05-10T05:02:53;13.40;99.90
19928;DHT22;10126;50.876;4.470;2023-05-10T05:04:55;13.40;99.90
19928;DHT22;10126;50.876;4.470;2023-05-10T05:06:58;13.40;99.90
19928;DHT22;10126;50.876;4.470;2023-05-10T05:08:58;13.40;99.90
19928;DHT22;10126;50.876;4.470;2023-05-10T05:10:59;13.50;99.90
19928;DHT22;10126;50.876;4.470;2023-05-10T05:13:00;13.50;99.90
19928;DHT22;10126;50.876;4.470;2023-05-10T05:15:02;13.50;99.90
19928;DHT22;10126;50.876;4.470;2023-05-10T05:17:03;13.50;99.90
19928;DHT22;10126;50.876;4.470;2023-05-10T05:19:04;13.60;99.90
19928;DHT22;10126;50.876;4.470;2023-05-10T05:21:15;13.60;99.90
19928;DHT22;10126;50.876;4.470;2023-05-10T05:23:16;13.80;99.90
19928;DHT22;10126;50.876;4.470;2023-05-10T05:25:17;13.90;99.90
19928;DHT22;10126;50.876;4.470;2023-05-10T05:27:20;13.90;99.90
19928;DHT22;10126;50.876;4.470;2023-05-10T05:29:24;13.90;99.90
19928;DHT22;10126;50.876;4.470;2023-05-10T05:31:25;13.80;99.90
19928;DHT22;10126;50.876;4.470;2023-05-10T05:33:25;13.80;99.90
19928;DHT22;10126;50.876;4.470;2023-05-10T05:35:26;13.80;99.90
19928;DHT22;10126;50.876;4.470;2023-05-10T05:37:27;13.80;99.90
19928;DHT22;10126;50.876;4.470;2023-05-10T05:39:27;13.90;99.90
19928;DHT22;10126;50.876;4.470;2023-05-10T05:41:28;14.10;99.90
19928;DHT22;10126;50.876;4.470;2023-05-10T05:43:28;14.10;99.90
19928;DHT22;10126;50.876;4.470;2023-05-10T05:45:29;14.10;99.90
19928;DHT22;10126;50.876;4.470;2023-05-10T05:47:30;14.10;99.90
19928;DHT22;10126;50.876;4.470;2023-05-10T05:49:30;14.10;99.90
19928;DHT22;10126;50.876;4.470;2023-05-10T05:51:31;14.20;99.90
19928;DHT22;10126;50.876;4.470;2023-05-10T05:53:31;14.40;99.90
19928;DHT22;10126;50.876;4.470;2023-05-10T05:55:32;14.60;99.90
19928;DHT22;10126;50.876;4.470;2023-05-10T05:57:33;14.60;99.90
19928;DHT22;10126;50.876;4.470;2023-05-10T05:59:34;14.50;99.90
19928;DHT22;10126;50.876;4.470;2023-05-10T06:01:34;14.60;99.90
19928;DHT22;10126;50.876;4.470;2023-05-10T06:03:35;14.70;99.90
19928;DHT22;10126;50.876;4.470;2023-05-10T06:05:35;14.70;99.90
19928;DHT22;10126;50.876;4.470;2023-05-10T06:07:36;14.80;99.90
19928;DHT22;10126;50.876;4.470;2023-05-10T06:09:37;15.10;99.90
19928;DHT22;10126;50.876;4.470;2023-05-10T06:11:37;15.30;99.90
19928;DHT22;10126;50.876;4.470;2023-05-10T06:13:38;15.50;99.90
19928;DHT22;10126;50.876;4.470;2023-05-10T06:15:39;15.50;99.90
19928;DHT22;10126;50.876;4.470;2023-05-10T06:17:40;15.70;99.90
19928;DHT22;10126;50.876;4.470;2023-05-10T06:19:40;15.90;99.90
19928;DHT22;10126;50.876;4.470;2023-05-10T06:21:41;15.70;99.90
19928;DHT22;10126;50.876;4.470;2023-05-10T06:23:42;15.60;99.90
19928;DHT22;10126;50.876;4.470;2023-05-10T06:25:42;15.60;99.90
19928;DHT22;10126;50.876;4.470;2023-05-10T06:27:43;15.70;99.90
19928;DHT22;10126;50.876;4.470;2023-05-10T06:29:44;15.90;99.90
19928;DHT22;10126;50.876;4.470;2023-05-10T06:31:45;16.20;99.90
19928;DHT22;10126;50.876;4.470;2023-05-10T06:33:45;16.20;99.90
19928;DHT22;10126;50.876;4.470;2023-05-10T06:35:46;16.00;99.90
19928;DHT22;10126;50.876;4.470;2023-05-10T06:37:47;16.00;99.90
19928;DHT22;10126;50.876;4.470;2023-05-10T06:39:47;16.00;99.90
19928;DHT22;10126;50.876;4.470;2023-05-10T06:41:48;15.80;99.90
19928;DHT22;10126;50.876;4.470;2023-05-10T06:43:49;15.60;99.90
19928;DHT22;10126;50.876;4.470;2023-05-10T06:45:50;15.60;99.90
19928;DHT22;10126;50.876;4.470;2023-05-10T06:47:50;15.80;99.90
19928;DHT22;10126;50.876;4.470;2023-05-10T06:49:51;15.70;99.90
19928;DHT22;10126;50.876;4.470;2023-05-10T06:51:52;15.70;99.90
19928;DHT22;10126;50.876;4.470;2023-05-10T06:53:52;15.60;99.90
19928;DHT22;10126;50.876;4.470;2023-05-10T06:55:53;15.60;99.90
19928;DHT22;10126;50.876;4.470;2023-05-10T06:57:54;15.80;99.90
19928;DHT22;10126;50.876;4.470;2023-05-10T06:59:54;15.70;99.90
19928;DHT22;10126;50.876;4.470;2023-05-10T07:01:56;15.60;99.90
19928;DHT22;10126;50.876;4.470;2023-05-10T07:03:57;15.60;99.90
19928;DHT22;10126;50.876;4.470;2023-05-10T07:06:03;15.40;99.90
19928;DHT22;10126;50.876;4.470;2023-05-10T07:08:04;15.30;99.90
19928;DHT22;10126;50.876;4.470;2023-05-10T07:10:05;15.20;99.90
19928;DHT22;10126;50.876;4.470;2023-05-10T07:12:07;15.30;99.90
19928;DHT22;10126;50.876;4.470;2023-05-10T07:14:08;15.20;99.90
19928;DHT22;10126;50.876;4.470;2023-05-10T07:16:08;15.10;99.90
19928;DHT22;10126;50.876;4.470;2023-05-10T07:18:09;15.00;99.90
19928;DHT22;10126;50.876;4.470;2023-05-10T07:20:10;15.00;99.90
19928;DHT22;10126;50.876;4.470;2023-05-10T07:22:10;14.80;99.90
19928;DHT22;10126;50.876;4.470;2023-05-10T07:24:11;14.90;99.90
19928;DHT22;10126;50.876;4.470;2023-05-10T07:26:12;14.70;99.90
19928;DHT22;10126;50.876;4.470;2023-05-10T07:28:14;14.90;99.90
19928;DHT22;10126;50.876;4.470;2023-05-10T07:30:15;14.70;99.90
19928;DHT22;10126;50.876;4.470;2023-05-10T07:32:15;14.80;99.90
19928;DHT22;10126;50.876;4.470;2023-05-10T07:34:16;14.60;99.90
19928;DHT22;10126;50.876;4.470;2023-05-10T07:36:17;14.60;99.90
19928;DHT22;10126;50.876;4.470;2023-05-10T07:38:17;14.50;99.90
19928;DHT22;10126;50.876;4.470;2023-05-10T07:40:18;14.40;99.90
19928;DHT22;10126;50.876;4.470;2023-05-10T07:42:19;14.30;99.90
19928;DHT22;10126;50.876;4.470;2023-05-10T07:44:19;14.40;99.90
19928;DHT22;10126;50.876;4.470;2023-05-10T07:46:20;14.50;99.90
19928;DHT22;10126;50.876;4.470;2023-05-10T07:48:21;14.40;99.90
19928;DHT22;10126;50.876;4.470;2023-05-10T07:50:21;14.30;99.90
19928;DHT22;10126;50.876;4.470;2023-05-10T07:52:22;14.30;99.90
19928;DHT22;10126;50.876;4.470;2023-05-10T07:54:23;14.10;99.90
19928;DHT22;10126;50.876;4.470;2023-05-10T07:56:25;14.20;99.90
19928;DHT22;10126;50.876;4.470;2023-05-10T07:58:27;14.30;99.90
19928;DHT22;10126;50.876;4.470;2023-05-10T08:00:28;14.10;99.90
19928;DHT22;10126;50.876;4.470;2023-05-10T08:02:28;14.20;99.90
19928;DHT22;10126;50.876;4.470;2023-05-10T08:04:29;14.40;99.90
19928;DHT22;10126;50.876;4.470;2023-05-10T08:06:30;14.50;99.90
19928;DHT22;10126;50.876;4.470;2023-05-10T08:08:31;14.60;99.90
19928;DHT22;10126;50.876;4.470;2023-05-10T08:10:31;14.40;99.90
19928;DHT22;10126;50.876;4.470;2023-05-10T08:12:32;14.40;99.90
19928;DHT22;10126;50.876;4.470;2023-05-10T08:14:33;14.40;99.90
19928;DHT22;10126;50.876;4.470;2023-05-10T08:16:33;14.20;99.90
19928;DHT22;10126;50.876;4.470;2023-05-10T08:18:34;14.00;99.90
19928;DHT22;10126;50.876;4.470;2023-05-10T08:20:35;14.00;99.90
19928;DHT22;10126;50.876;4.470;2023-05-10T08:22:36;14.10;99.90
19928;DHT22;10126;50.876;4.470;2023-05-10T08:24:36;14.20;99.90
19928;DHT22;10126;50.876;4.470;2023-05-10T08:26:38;14.20;99.90
19928;DHT22;10126;50.876;4.470;2023-05-10T08:28:39;14.40;99.90
19928;DHT22;10126;50.876;4.470;2023-05-10T08:30:40;14.50;99.90
19928;DHT22;10126;50.876;4.470;2023-05-10T08:32:41;14.80;99.90
19928;DHT22;10126;50.876;4.470;2023-05-10T08:34:41;15.00;99.90
19928;DHT22;10126;50.876;4.470;2023-05-10T08:36:42;15.10;99.90
19928;DHT22;10126;50.876;4.470;2023-05-10T08:38:42;15.30;99.90
19928;DHT22;10126;50.876;4.470;2023-05-10T08:40:44;15.40;99.90
19928;DHT22;10126;50.876;4.470;2023-05-10T08:42:55;15.50;99.90
19928;DHT22;10126;50.876;4.470;2023-05-10T08:44:59;15.60;99.90
19928;DHT22;10126;50.876;4.470;2023-05-10T08:47:04;15.80;99.90
19928;DHT22;10126;50.876;4.470;2023-05-10T08:49:07;15.80;99.90
19928;DHT22;10126;50.876;4.470;2023-05-10T08:51:09;15.90;99.90
19928;DHT22;10126;50.876;4.470;2023-05-10T08:53:16;15.90;99.90
19928;DHT22;10126;50.876;4.470;2023-05-10T08:55:17;16.00;99.90
19928;DHT22;10126;50.876;4.470;2023-05-10T08:57:19;15.90;99.90
19928;DHT22;10126;50.876;4.470;2023-05-10T08:59:20;15.80;99.90
19928;DHT22;10126;50.876;4.470;2023-05-10T09:01:21;16.00;99.90
19928;DHT22;10126;50.876;4.470;2023-05-10T09:03:22;16.20;99.90
19928;DHT22;10126;50.876;4.470;2023-05-10T09:05:22;16.20;99.90
19928;DHT22;10126;50.876;4.470;2023-05-10T09:07:23;16.40;99.90
19928;DHT22;10126;50.876;4.470;2023-05-10T09:09:25;16.50;99.90
19928;DHT22;10126;50.876;4.470;2023-05-10T09:11:26;16.50;99.90
19928;DHT22;10126;50.876;4.470;2023-05-10T09:13:29;16.50;99.90
19928;DHT22;10126;50.876;4.470;2023-05-10T09:15:30;16.50;99.90
19928;DHT22;10126;50.876;4.470;2023-05-10T09:17:31;16.60;99.90
19928;DHT22;10126;50.876;4.470;2023-05-10T09:19:32;16.50;99.90
19928;DHT22;10126;50.876;4.470;2023-05-10T09:21:34;16.20;99.90
19928;DHT22;10126;50.876;4.470;2023-05-10T09:23:37;16.30;99.90
19928;DHT22;10126;50.876;4.470;2023-05-10T09:25:38;16.10;99.90
19928;DHT22;10126;50.876;4.470;2023-05-10T09:27:45;15.90;99.90
19928;DHT22;10126;50.876;4.470;2023-05-10T09:29:45;15.70;99.90
19928;DHT22;10126;50.876;4.470;2023-05-10T09:31:55;15.60;99.90
19928;DHT22;10126;50.876;4.470;2023-05-10T09:33:56;15.30;99.90
19928;DHT22;10126;50.876;4.470;2023-05-10T09:36:06;15.30;99.90
19928;DHT22;10126;50.876;4.470;2023-05-10T09:38:08;15.30;99.90
19928;DHT22;10126;50.876;4.470;2023-05-10T09:42:18;15.40;99.90
19928;DHT22;10126;50.876;4.470;2023-05-10T09:44:18;15.20;99.90
19928;DHT22;10126;50.876;4.470;2023-05-10T09:46:20;15.20;99.90
19928;DHT22;10126;50.876;4.470;2023-05-10T09:48:23;15.10;99.90
19928;DHT22;10126;50.876;4.470;2023-05-10T09:50:25;15.20;99.90
19928;DHT22;10126;50.876;4.470;2023-05-10T09:52:26;15.20;99.90
19928;DHT22;10126;50.876;4.470;2023-05-10T09:54:27;15.50;99.90
19928;DHT22;10126;50.876;4.470;2023-05-10T09:56:35;15.70;99.90
19928;DHT22;10126;50.876;4.470;2023-05-10T09:58:40;15.80;99.90
19928;DHT22;10126;50.876;4.470;2023-05-10T10:00:43;15.70;99.90
19928;DHT22;10126;50.876;4.470;2023-05-10T10:02:53;15.70;99.90
19928;DHT22;10126;50.876;4.470;2023-05-10T10:04:55;15.40;99.90
19928;DHT22;10126;50.876;4.470;2023-05-10T10:07:04;15.40;99.90
19928;DHT22;10126;50.876;4.470;2023-05-10T10:09:06;15.50;99.90
19928;DHT22;10126;50.876;4.470;2023-05-10T10:11:07;15.60;99.90
19928;DHT22;10126;50.876;4.470;2023-05-10T10:13:08;15.80;99.90
19928;DHT22;10126;50.876;4.470;2023-05-10T10:15:09;15.70;99.90
19928;DHT22;10126;50.876;4.470;2023-05-10T10:17:11;15.60;99.90
19928;DHT22;10126;50.876;4.470;2023-05-10T10:19:12;15.40;99.90
19928;DHT22;10126;50.876;4.470;2023-05-10T10:21:14;15.60;99.90
19928;DHT22;10126;50.876;4.470;2023-05-10T10:23:15;15.60;99.90
19928;DHT22;10126;50.876;4.470;2023-05-10T10:25:17;15.90;99.90
19928;DHT22;10126;50.876;4.470;2023-05-10T10:27:26;16.00;99.90
19928;DHT22;10126;50.876;4.470;2023-05-10T10:29:47;16.10;99.90
19928;DHT22;10126;50.876;4.470;2023-05-10T10:34:29;16.00;99.90
19928;DHT22;10126;50.876;4.470;2023-05-10T10:36:30;15.80;99.90
19928;DHT22;10126;50.876;4.470;2023-05-10T10:41:02;15.90;99.90
19928;DHT22;10126;50.876;4.470;2023-05-10T10:43:22;15.90;99.90
19928;DHT22;10126;50.876;4.470;2023-05-10T10:45:25;16.10;99.90
19928;DHT22;10126;50.876;4.470;2023-05-10T10:47:28;16.10;99.90
19928;DHT22;10126;50.876;4.470;2023-05-10T10:50:02;15.90;99.90
19928;DHT22;10126;50.876;4.470;2023-05-10T10:52:20;15.80;99.90
19928;DHT22;10126;50.876;4.470;2023-05-10T10:54:27;15.80;99.90
19928;DHT22;10126;50.876;4.470;2023-05-10T10:56:28;15.60;99.90
19928;DHT22;10126;50.876;4.470;2023-05-10T10:58:32;15.80;99.90
19928;DHT22;10126;50.876;4.470;2023-05-10T11:00:36;15.80;99.90
19928;DHT22;10126;50.876;4.470;2023-05-10T11:02:47;15.80;99.90
19928;DHT22;10126;50.876;4.470;2023-05-10T11:04:54;15.90;99.90
19928;DHT22;10126;50.876;4.470;2023-05-10T11:07:18;16.10;99.90
19928;DHT22;10126;50.876;4.470;2023-05-10T11:09:24;16.30;99.90
19928;DHT22;10126;50.876;4.470;2023-05-10T11:11:25;16.60;99.90
19928;DHT22;10126;50.876;4.470;2023-05-10T11:13:39;16.60;99.90
19928;DHT22;10126;50.876;4.470;2023-05-10T11:15:48;16.60;99.90
19928;DHT22;10126;50.876;4.470;2023-05-10T11:17:49;16.60;99.90
19928;DHT22;10126;50.876;4.470;2023-05-10T11:20:11;16.60;99.90
19928;DHT22;10126;50.876;4.470;2023-05-10T11:22:14;16.80;99.90
19928;DHT22;10126;50.876;4.470;2023-05-10T11:24:20;16.90;99.90
19928;DHT22;10126;50.876;4.470;2023-05-10T11:26:21;16.90;99.90
19928;DHT22;10126;50.876;4.470;2023-05-10T11:28:26;17.40;99.90
19928;DHT22;10126;50.876;4.470;2023-05-10T11:30:27;17.50;99.90
19928;DHT22;10126;50.876;4.470;2023-05-10T11:32:29;17.20;99.90
19928;DHT22;10126;50.876;4.470;2023-05-10T11:34:31;17.50;99.90
19928;DHT22;10126;50.876;4.470;2023-05-10T11:36:36;17.70;99.90
19928;DHT22;10126;50.876;4.470;2023-05-10T11:38:37;17.70;99.90
19928;DHT22;10126;50.876;4.470;2023-05-10T11:40:38;17.90;99.90
19928;DHT22;10126;50.876;4.470;2023-05-10T11:42:39;18.00;99.90
19928;DHT22;10126;50.876;4.470;2023-05-10T11:44:40;18.00;99.90
19928;DHT22;10126;50.876;4.470;2023-05-10T11:46:42;17.90;99.90
19928;DHT22;10126;50.876;4.470;2023-05-10T11:48:43;18.10;99.90
19928;DHT22;10126;50.876;4.470;2023-05-10T11:50:44;18.40;99.90
19928;DHT22;10126;50.876;4.470;2023-05-10T11:52:51;18.30;99.90
19928;DHT22;10126;50.876;4.470;2023-05-10T11:54:53;18.00;99.90
19928;DHT22;10126;50.876;4.470;2023-05-10T11:56:54;18.20;99.90
19928;DHT22;10126;50.876;4.470;2023-05-10T11:58:56;18.70;99.90
19928;DHT22;10126;50.876;4.470;2023-05-10T12:00:59;19.00;99.90
19928;DHT22;10126;50.876;4.470;2023-05-10T12:03:00;19.00;99.90
19928;DHT22;10126;50.876;4.470;2023-05-10T12:05:03;19.00;99.90
19928;DHT22;10126;50.876;4.470;2023-05-10T12:07:04;19.30;99.90
19928;DHT22;10126;50.876;4.470;2023-05-10T12:09:08;19.50;99.90
19928;DHT22;10126;50.876;4.470;2023-05-10T12:11:09;19.60;99.90
19928;DHT22;10126;50.876;4.470;2023-05-10T12:13:13;19.70;99.90
19928;DHT22;10126;50.876;4.470;2023-05-10T12:15:22;20.00;99.90
19928;DHT22;10126;50.876;4.470;2023-05-10T12:17:27;20.30;99.90
19928;DHT22;10126;50.876;4.470;2023-05-10T12:19:37;20.50;99.90
19928;DHT22;10126;50.876;4.470;2023-05-10T12:21:37;20.30;99.90
19928;DHT22;10126;50.876;4.470;2023-05-10T12:23:39;20.10;99.90
19928;DHT22;10126;50.876;4.470;2023-05-10T12:25:40;20.30;99.90
19928;DHT22;10126;50.876;4.470;2023-05-10T12:27:41;19.80;99.90
19928;DHT22;10126;50.876;4.470;2023-05-10T12:29:48;19.80;99.90
19928;DHT22;10126;50.876;4.470;2023-05-10T12:33:53;20.20;99.90
19928;DHT22;10126;50.876;4.470;2023-05-10T12:35:54;20.20;99.90
19928;DHT22;10126;50.876;4.470;2023-05-10T12:37:56;20.30;99.90
19928;DHT22;10126;50.876;4.470;2023-05-10T12:39:57;19.90;99.90
19928;DHT22;10126;50.876;4.470;2023-05-10T12:41:57;19.60;99.90
19928;DHT22;10126;50.876;4.470;2023-05-10T12:43:58;19.60;99.90
19928;DHT22;10126;50.876;4.470;2023-05-10T12:46:22;19.60;99.90
19928;DHT22;10126;50.876;4.470;2023-05-10T12:48:25;19.60;99.90
19928;DHT22;10126;50.876;4.470;2023-05-10T12:50:26;19.50;99.90
19928;DHT22;10126;50.876;4.470;2023-05-10T12:52:27;19.60;99.90
19928;DHT22;10126;50.876;4.470;2023-05-10T12:54:28;20.00;99.90
19928;DHT22;10126;50.876;4.470;2023-05-10T12:56:28;20.20;99.90
19928;DHT22;10126;50.876;4.470;2023-05-10T12:58:29;20.50;99.90
19928;DHT22;10126;50.876;4.470;2023-05-10T13:00:30;20.60;99.90
19928;DHT22;10126;50.876;4.470;2023-05-10T13:02:30;20.30;99.90
19928;DHT22;10126;50.876;4.470;2023-05-10T13:04:31;20.50;99.90
19928;DHT22;10126;50.876;4.470;2023-05-10T13:06:32;20.10;99.90
19928;DHT22;10126;50.876;4.470;2023-05-10T13:08:32;19.80;99.90
19928;DHT22;10126;50.876;4.470;2023-05-10T13:10:33;19.90;99.90
19928;DHT22;10126;50.876;4.470;2023-05-10T13:12:34;19.80;99.90
19928;DHT22;10126;50.876;4.470;2023-05-10T13:14:35;19.60;99.90
19928;DHT22;10126;50.876;4.470;2023-05-10T13:16:36;19.20;99.90
19928;DHT22;10126;50.876;4.470;2023-05-10T13:18:36;18.90;99.90
19928;DHT22;10126;50.876;4.470;2023-05-10T13:20:37;19.00;99.90
19928;DHT22;10126;50.876;4.470;2023-05-10T13:22:38;19.30;99.90